Time,TemperatureF,DewpointF,PressureIn,WindDirection,WindDirectionDegrees,WindSpeedMPH,WindSpeedGustMPH,Humidity,HourlyPrecipIn,Conditions,Clouds,dailyrainin,SoftwareType,DateUTC
2013-05-07 00:01:00,51.5,47.1,30.20,East,80,0.0,0.0,85,0.00,,,0.00,WeatherCatV1.11B39,2013-05-07 04:01:00,
2013-05-07 00:02:00,51.3,46.9,30.20,East,80,0.0,0.0,85,0.00,,,0.00,WeatherCatV1.11B39,2013-05-07 04:02:00,
2013-05-07 00:07:00,51.0,46.7,30.20,East,80,0.0,0.0,85,0.00,,,0.00,WeatherCatV1.11B39,2013-05-07 04:07:00,
2013-05-07 00:12:00,50.9,46.6,30.20,East,80,0.0,0.0,85,0.00,,,0.00,WeatherCatV1.11B39,2013-05-07 04:12:00,
2013-05-07 00:17:00,51.0,47.0,30.20,East,80,0.0,0.0,86,0.00,,,0.00,WeatherCatV1.11B39,2013-05-07 04:17:00,
2013-05-07 00:22:00,51.0,47.0,30.20,East,80,0.0,0.0,86,0.00,,,0.00,WeatherCatV1.11B39,2013-05-07 04:22:00,
2013-05-07 00:27:00,50.7,46.4,30.20,East,80,0.0,0.0,85,0.00,,,0.00,WeatherCatV1.11B39,2013-05-07 04:27:00,
2013-05-07 00:32:00,50.6,46.6,30.19,East,80,0.0,0.0,86,0.00,,,0.00,WeatherCatV1.11B39,2013-05-07 04:32:00,
2013-05-07 00:37:00,50.4,46.4,30.19,East,80,0.0,0.0,86,0.00,,,0.00,WeatherCatV1.11B39,2013-05-07 04:37:00,
2013-05-07 00:42:00,50.5,46.5,30.19,East,80,0.0,0.0,86,0.00,,,0.00,WeatherCatV1.11B39,2013-05-07 04:42:00,
2013-05-07 00:47:00,50.5,46.8,30.19,East,80,0.0,0.0,87,0.00,,,0.00,WeatherCatV1.11B39,2013-05-07 04:47:00,
2013-05-07 00:52:00,50.4,46.7,30.20,East,80,0.0,0.0,87,0.00,,,0.00,WeatherCatV1.11B39,2013-05-07 04:52:00,
2013-05-07 00:57:00,50.3,46.6,30.19,East,80,0.0,0.0,87,0.00,,,0.00,WeatherCatV1.11B39,2013-05-07 04:57:00,
2013-05-07 01:02:00,50.2,46.2,30.19,East,80,0.0,0.0,86,0.00,,,0.00,WeatherCatV1.11B39,2013-05-07 05:02:00,
2013-05-07 01:07:00,49.9,45.9,30.19,East,80,0.0,0.0,86,0.00,,,0.00,WeatherCatV1.11B39,2013-05-07 05:07:00,
2013-05-07 01:12:00,49.7,46.0,30.19,East,80,0.0,0.0,87,0.00,,,0.00,WeatherCatV1.11B39,2013-05-07 05:12:00,
2013-05-07 01:17:00,49.5,45.8,30.19,East,80,0.0,0.0,87,0.00,,,0.00,WeatherCatV1.11B39,2013-05-07 05:17:00,
2013-05-07 01:22:00,49.4,45.7,30.19,East,80,0.0,0.0,87,0.00,,,0.00,WeatherCatV1.11B39,2013-05-07 05:22:00,
2013-05-07 01:27:00,49.2,45.2,30.19,East,80,0.0,0.0,86,0.00,,,0.00,WeatherCatV1.11B39,2013-05-07 05:27:00,
2013-05-07 01:32:00,49.2,45.8,30.18,East,80,0.0,0.0,88,0.00,,,0.00,WeatherCatV1.11B39,2013-05-07 05:32:00,
2013-05-07 01:37:00,49.1,45.7,30.18,East,80,0.0,0.0,88,0.00,,,0.00,WeatherCatV1.11B39,2013-05-07 05:37:00,
2013-05-07 01:42:00,48.8,45.1,30.18,East,80,0.0,0.0,87,0.00,,,0.00,WeatherCatV1.11B39,2013-05-07 05:42:00,
2013-05-07 01:47:00,48.7,45.3,30.18,East,80,0.0,0.0,88,0.00,,,0.00,WeatherCatV1.11B39,2013-05-07 05:47:00,
2013-05-07 01:52:00,48.7,45.3,30.18,East,80,0.0,0.0,88,0.00,,,0.00,WeatherCatV1.11B39,2013-05-07 05:52:00,
2013-05-07 01:57:00,48.7,45.3,30.18,East,80,0.0,0.0,88,0.00,,,0.00,WeatherCatV1.11B39,2013-05-07 05:57:00,
2013-05-07 02:02:00,48.7,45.3,30.18,East,80,0.0,0.0,88,0.00,,,0.00,WeatherCatV1.11B39,2013-05-07 06:02:00,
2013-05-07 02:07:00,48.5,45.1,30.18,East,80,0.0,0.0,88,0.00,,,0.00,WeatherCatV1.11B39,2013-05-07 06:07:00,
2013-05-07 02:12:00,48.5,45.4,30.18,East,80,0.0,0.0,89,0.00,,,0.00,WeatherCatV1.11B39,2013-05-07 06:12:00,
2013-05-07 02:17:00,48.5,45.4,30.18,East,80,0.0,0.0,89,0.00,,,0.00,WeatherCatV1.11B39,2013-05-07 06:17:00,
2013-05-07 02:22:00,48.5,45.4,30.18,East,80,0.0,0.0,89,0.00,,,0.00,WeatherCatV1.11B39,2013-05-07 06:22:00,
2013-05-07 02:27:00,48.5,45.4,30.18,East,80,0.0,0.0,89,0.00,,,0.00,WeatherCatV1.11B39,2013-05-07 06:27:00,
2013-05-07 02:32:00,48.2,45.1,30.18,East,80,0.0,0.0,89,0.00,,,0.00,WeatherCatV1.11B39,2013-05-07 06:32:00,
2013-05-07 02:37:00,47.9,44.8,30.18,East,80,0.0,0.0,89,0.00,,,0.00,WeatherCatV1.11B39,2013-05-07 06:37:00,
2013-05-07 02:42:00,47.9,45.1,30.18,East,80,0.0,0.0,90,0.00,,,0.00,WeatherCatV1.11B39,2013-05-07 06:42:00,
2013-05-07 02:47:00,47.7,44.9,30.18,East,80,0.0,0.0,90,0.00,,,0.00,WeatherCatV1.11B39,2013-05-07 06:47:00,
2013-05-07 02:52:00,47.7,44.9,30.18,East,80,0.0,0.0,90,0.00,,,0.00,WeatherCatV1.11B39,2013-05-07 06:52:00,
2013-05-07 02:57:00,47.6,44.8,30.18,East,80,0.0,0.0,90,0.00,,,0.00,WeatherCatV1.11B39,2013-05-07 06:57:00,
2013-05-07 03:02:00,47.5,44.7,30.18,East,80,0.0,0.0,90,0.00,,,0.00,WeatherCatV1.11B39,2013-05-07 07:02:00,
2013-05-07 03:07:00,47.2,44.4,30.18,East,80,0.0,0.0,90,0.00,,,0.00,WeatherCatV1.11B39,2013-05-07 07:07:00,
2013-05-07 03:12:00,47.2,44.4,30.18,East,80,0.0,0.0,90,0.00,,,0.00,WeatherCatV1.11B39,2013-05-07 07:12:00,
2013-05-07 03:17:00,47.2,44.7,30.18,East,80,0.0,0.0,91,0.00,,,0.00,WeatherCatV1.11B39,2013-05-07 07:17:00,
2013-05-07 03:22:00,47.2,44.7,30.18,East,80,0.0,0.0,91,0.00,,,0.00,WeatherCatV1.11B39,2013-05-07 07:22:00,
2013-05-07 03:27:00,47.0,44.8,30.18,East,80,0.0,0.0,92,0.00,,,0.00,WeatherCatV1.11B39,2013-05-07 07:27:00,
2013-05-07 03:32:00,47.0,44.5,30.18,East,80,0.0,0.0,91,0.00,,,0.00,WeatherCatV1.11B39,2013-05-07 07:32:00,
2013-05-07 03:37:00,46.7,44.5,30.18,East,80,0.0,0.0,92,0.00,,,0.00,WeatherCatV1.11B39,2013-05-07 07:37:00,
2013-05-07 03:42:00,46.7,44.5,30.18,East,80,0.0,0.0,92,0.00,,,0.00,WeatherCatV1.11B39,2013-05-07 07:42:00,
2013-05-07 03:47:00,46.9,44.7,30.18,East,80,0.0,0.0,92,0.00,,,0.00,WeatherCatV1.11B39,2013-05-07 07:47:00,
2013-05-07 03:52:00,46.8,44.6,30.18,East,80,0.0,0.0,92,0.00,,,0.00,WeatherCatV1.11B39,2013-05-07 07:52:00,
2013-05-07 03:57:00,46.6,44.4,30.18,East,80,0.0,0.0,92,0.00,,,0.00,WeatherCatV1.11B39,2013-05-07 07:57:00,
2013-05-07 04:02:00,46.5,44.3,30.18,East,80,0.0,0.0,92,0.00,,,0.00,WeatherCatV1.11B39,2013-05-07 08:02:00,
2013-05-07 04:07:00,46.5,44.3,30.18,East,80,0.0,0.0,92,0.00,,,0.00,WeatherCatV1.11B39,2013-05-07 08:07:00,
2013-05-07 04:12:00,46.5,44.3,30.18,East,80,0.0,0.0,92,0.00,,,0.00,WeatherCatV1.11B39,2013-05-07 08:12:00,
2013-05-07 04:17:00,46.2,44.0,30.18,East,80,0.0,0.0,92,0.00,,,0.00,WeatherCatV1.11B39,2013-05-07 08:17:00,
2013-05-07 04:22:00,46.0,44.1,30.18,East,80,0.0,0.0,93,0.00,,,0.00,WeatherCatV1.11B39,2013-05-07 08:22:00,
2013-05-07 04:27:00,46.2,44.3,30.18,East,80,0.0,0.0,93,0.00,,,0.00,WeatherCatV1.11B39,2013-05-07 08:27:00,
2013-05-07 04:32:00,46.0,44.1,30.18,East,80,0.0,0.0,93,0.00,,,0.00,WeatherCatV1.11B39,2013-05-07 08:32:00,
2013-05-07 04:37:00,46.2,44.6,30.18,East,80,0.0,0.0,94,0.00,,,0.00,WeatherCatV1.11B39,2013-05-07 08:37:00,
2013-05-07 04:42:00,46.5,44.6,30.18,East,80,0.0,0.0,93,0.00,,,0.00,WeatherCatV1.11B39,2013-05-07 08:42:00,
2013-05-07 04:47:00,46.8,45.2,30.18,East,80,0.0,0.0,94,0.00,,,0.00,WeatherCatV1.11B39,2013-05-07 08:47:00,
2013-05-07 04:52:00,46.6,45.0,30.18,East,80,0.0,0.0,94,0.00,,,0.00,WeatherCatV1.11B39,2013-05-07 08:52:00,
2013-05-07 04:57:00,46.6,44.7,30.18,East,80,0.0,0.0,93,0.00,,,0.00,WeatherCatV1.11B39,2013-05-07 08:57:00,
2013-05-07 05:02:00,46.2,44.3,30.18,East,80,0.0,0.0,93,0.00,,,0.00,WeatherCatV1.11B39,2013-05-07 09:02:00,
2013-05-07 05:07:00,46.0,44.4,30.18,East,80,0.0,0.0,94,0.00,,,0.00,WeatherCatV1.11B39,2013-05-07 09:07:00,
2013-05-07 05:12:00,46.0,44.4,30.18,East,80,0.0,0.0,94,0.00,,,0.00,WeatherCatV1.11B39,2013-05-07 09:12:00,
2013-05-07 05:17:00,46.0,44.4,30.18,East,80,0.0,0.0,94,0.00,,,0.00,WeatherCatV1.11B39,2013-05-07 09:17:00,
2013-05-07 05:22:00,45.9,44.0,30.18,East,80,0.0,0.0,93,0.00,,,0.00,WeatherCatV1.11B39,2013-05-07 09:22:00,
2013-05-07 05:27:00,45.9,44.3,30.18,East,80,0.0,0.0,94,0.00,,,0.00,WeatherCatV1.11B39,2013-05-07 09:27:00,
2013-05-07 05:32:00,45.7,44.1,30.18,East,80,0.0,0.0,94,0.00,,,0.00,WeatherCatV1.11B39,2013-05-07 09:32:00,
2013-05-07 05:37:00,45.8,44.2,30.19,East,80,0.0,0.0,94,0.00,,,0.00,WeatherCatV1.11B39,2013-05-07 09:37:00,
2013-05-07 05:42:00,45.6,44.0,30.19,East,80,0.0,0.0,94,0.00,,,0.00,WeatherCatV1.11B39,2013-05-07 09:42:00,
2013-05-07 05:47:00,45.3,43.7,30.19,East,80,0.0,0.0,94,0.00,,,0.00,WeatherCatV1.11B39,2013-05-07 09:47:00,
2013-05-07 05:52:00,45.3,43.7,30.19,East,80,0.0,0.0,94,0.00,,,0.00,WeatherCatV1.11B39,2013-05-07 09:52:00,
2013-05-07 05:57:00,45.3,43.7,30.19,East,80,0.0,0.0,94,0.00,,,0.00,WeatherCatV1.11B39,2013-05-07 09:57:00,
2013-05-07 06:02:00,45.3,43.7,30.19,East,80,0.0,0.0,94,0.00,,,0.00,WeatherCatV1.11B39,2013-05-07 10:02:00,
2013-05-07 06:07:00,45.3,43.7,30.19,East,80,0.0,0.0,94,0.00,,,0.00,WeatherCatV1.11B39,2013-05-07 10:07:00,
2013-05-07 06:12:00,45.3,43.7,30.19,ENE,78,0.0,0.0,94,0.00,,,0.00,WeatherCatV1.11B39,2013-05-07 10:12:00,
2013-05-07 06:17:00,45.4,43.8,30.19,ENE,78,0.0,0.0,94,0.00,,,0.00,WeatherCatV1.11B39,2013-05-07 10:17:00,
2013-05-07 06:22:00,45.4,43.8,30.19,ENE,77,0.0,0.0,94,0.00,,,0.00,WeatherCatV1.11B39,2013-05-07 10:22:00,
2013-05-07 06:27:00,45.4,43.8,30.19,ENE,77,0.0,0.0,94,0.00,,,0.00,WeatherCatV1.11B39,2013-05-07 10:27:00,
2013-05-07 06:32:00,45.6,44.3,30.19,ENE,78,0.0,0.0,95,0.00,,,0.00,WeatherCatV1.11B39,2013-05-07 10:32:00,
2013-05-07 06:37:00,45.9,44.5,30.19,ENE,77,0.0,0.0,95,0.00,,,0.00,WeatherCatV1.11B39,2013-05-07 10:37:00,
2013-05-07 06:42:00,46.0,44.6,30.20,ENE,77,0.0,0.0,95,0.00,,,0.00,WeatherCatV1.11B39,2013-05-07 10:42:00,
2013-05-07 06:47:00,46.5,45.1,30.19,ENE,77,0.0,0.0,95,0.00,,,0.00,WeatherCatV1.11B39,2013-05-07 10:47:00,
2013-05-07 06:52:00,46.6,45.2,30.19,ENE,77,0.0,0.0,95,0.00,,,0.00,WeatherCatV1.11B39,2013-05-07 10:52:00,
2013-05-07 06:54:00,46.7,45.3,30.20,ENE,77,0.0,0.0,95,0.00,,,0.00,WeatherCatV1.11B39,2013-05-07 10:54:00,
2013-05-07 06:59:00,47.0,45.9,30.19,ENE,77,0.0,0.0,96,0.00,,,0.00,WeatherCatV1.11B39,2013-05-07 10:59:00,
2013-05-07 07:04:00,47.5,46.1,30.20,ENE,77,0.0,0.0,95,0.00,,,0.00,WeatherCatV1.11B39,2013-05-07 11:04:00,
2013-05-07 07:09:00,48.1,47.0,30.20,ENE,77,0.0,0.0,96,0.00,,,0.00,WeatherCatV1.11B39,2013-05-07 11:09:00,
2013-05-07 07:14:00,48.7,47.6,30.20,ENE,77,0.0,0.0,96,0.00,,,0.00,WeatherCatV1.11B39,2013-05-07 11:14:00,
2013-05-07 07:19:00,49.1,48.0,30.20,ENE,77,0.0,0.0,96,0.00,,,0.00,WeatherCatV1.11B39,2013-05-07 11:19:00,
2013-05-07 07:24:00,49.5,48.4,30.20,ENE,77,0.0,0.0,96,0.00,,,0.00,WeatherCatV1.11B39,2013-05-07 11:24:00,
2013-05-07 07:29:00,50.0,48.9,30.20,ENE,77,0.0,0.0,96,0.00,,,0.00,WeatherCatV1.11B39,2013-05-07 11:29:00,
2013-05-07 07:34:00,50.4,49.3,30.20,ENE,77,0.0,0.0,96,0.00,,,0.00,WeatherCatV1.11B39,2013-05-07 11:34:00,
2013-05-07 07:39:00,50.7,49.6,30.19,ENE,77,0.0,0.0,96,0.00,,,0.00,WeatherCatV1.11B39,2013-05-07 11:39:00,
2013-05-07 07:44:00,51.0,50.2,30.20,ENE,78,0.0,0.0,97,0.00,,,0.00,WeatherCatV1.11B39,2013-05-07 11:44:00,
2013-05-07 07:49:00,51.3,50.5,30.20,East,99,0.0,0.0,97,0.00,,,0.00,WeatherCatV1.11B39,2013-05-07 11:49:00,
2013-05-07 07:54:00,51.4,50.3,30.20,East,99,0.0,0.0,96,0.00,,,0.00,WeatherCatV1.11B39,2013-05-07 11:54:00,
2013-05-07 07:59:00,51.8,50.7,30.20,East,99,0.0,0.0,96,0.00,,,0.00,WeatherCatV1.11B39,2013-05-07 11:59:00,
2013-05-07 08:02:00,51.9,50.8,30.20,East,98,0.0,0.0,96,0.00,,,0.00,WeatherCatV1.11B39,2013-05-07 12:02:00,
2013-05-07 08:07:00,52.2,51.1,30.20,East,98,0.0,0.0,96,0.00,,,0.00,WeatherCatV1.11B39,2013-05-07 12:07:00,
2013-05-07 08:12:00,52.8,52.0,30.20,East,98,0.0,0.0,97,0.00,,,0.00,WeatherCatV1.11B39,2013-05-07 12:12:00,
2013-05-07 08:17:00,53.2,52.1,30.20,East,98,0.0,0.0,96,0.00,,,0.00,WeatherCatV1.11B39,2013-05-07 12:17:00,
2013-05-07 08:22:00,53.8,52.4,30.20,East,98,0.0,0.0,95,0.00,,,0.00,WeatherCatV1.11B39,2013-05-07 12:22:00,
2013-05-07 08:27:00,55.1,53.7,30.20,East,97,0.0,0.0,95,0.00,,,0.00,WeatherCatV1.11B39,2013-05-07 12:27:00,
2013-05-07 08:32:00,56.2,54.5,30.19,East,92,0.0,0.0,94,0.00,,,0.00,WeatherCatV1.11B39,2013-05-07 12:32:00,
2013-05-07 08:37:00,57.0,55.0,30.19,East,91,0.0,0.0,93,0.00,,,0.00,WeatherCatV1.11B39,2013-05-07 12:37:00,
2013-05-07 08:42:00,57.9,55.0,30.20,East,92,0.0,0.0,90,0.00,,,0.00,WeatherCatV1.11B39,2013-05-07 12:42:00,
2013-05-07 08:47:00,59.0,55.4,30.19,East,95,0.0,0.0,88,0.00,,,0.00,WeatherCatV1.11B39,2013-05-07 12:47:00,
2013-05-07 08:52:00,60.1,54.9,30.19,East,96,0.0,0.0,83,0.00,,,0.00,WeatherCatV1.11B39,2013-05-07 12:52:00,
2013-05-07 08:57:00,61.2,53.9,30.19,SW,235,0.0,0.0,77,0.00,,,0.00,WeatherCatV1.11B39,2013-05-07 12:57:00,
2013-05-07 09:02:00,62.1,52.6,30.20,SW,236,0.0,0.0,71,0.00,,,0.00,WeatherCatV1.11B39,2013-05-07 13:02:00,
2013-05-07 09:07:00,62.9,52.2,30.19,SW,234,0.0,0.0,68,0.00,,,0.00,WeatherCatV1.11B39,2013-05-07 13:07:00,
2013-05-07 09:12:00,63.4,51.4,30.19,SW,234,0.0,0.0,65,0.00,,,0.00,WeatherCatV1.11B39,2013-05-07 13:12:00,
2013-05-07 09:17:00,63.9,51.9,30.19,SW,234,0.0,0.0,65,0.00,,,0.00,WeatherCatV1.11B39,2013-05-07 13:17:00,
2013-05-07 09:22:00,64.5,52.0,30.19,SW,234,0.0,0.0,64,0.00,,,0.00,WeatherCatV1.11B39,2013-05-07 13:22:00,
2013-05-07 09:27:00,65.1,51.8,30.19,SW,232,0.0,0.0,62,0.00,,,0.00,WeatherCatV1.11B39,2013-05-07 13:27:00,
2013-05-07 09:32:00,65.5,51.7,30.19,WSW,247,0.0,5.0,61,0.00,,,0.00,WeatherCatV1.11B39,2013-05-07 13:32:00,
2013-05-07 09:37:00,65.8,50.1,30.19,WSW,250,0.0,0.0,57,0.00,,,0.00,WeatherCatV1.11B39,2013-05-07 13:37:00,
2013-05-07 09:42:00,66.3,51.1,30.19,WSW,249,0.0,0.0,58,0.00,,,0.00,WeatherCatV1.11B39,2013-05-07 13:42:00,
2013-05-07 09:47:00,66.9,51.6,30.19,WSW,249,0.0,0.0,58,0.00,,,0.00,WeatherCatV1.11B39,2013-05-07 13:47:00,
2013-05-07 09:52:00,67.3,50.6,30.19,SW,236,0.0,0.0,55,0.00,,,0.00,WeatherCatV1.11B39,2013-05-07 13:52:00,
2013-05-07 09:57:00,67.4,48.6,30.19,SW,234,0.0,0.0,51,0.00,,,0.00,WeatherCatV1.11B39,2013-05-07 13:57:00,
2013-05-07 10:02:00,67.6,48.3,30.19,WSW,246,0.0,0.0,50,0.00,,,0.00,WeatherCatV1.11B39,2013-05-07 14:02:00,
2013-05-07 10:07:00,68.0,49.2,30.19,WSW,247,0.0,0.0,51,0.00,,,0.00,WeatherCatV1.11B39,2013-05-07 14:07:00,
2013-05-07 10:12:00,68.4,49.6,30.19,WSW,246,0.0,0.0,51,0.00,,,0.00,WeatherCatV1.11B39,2013-05-07 14:12:00,
2013-05-07 10:17:00,68.9,48.9,30.19,SSE,156,0.0,0.0,49,0.00,,,0.00,WeatherCatV1.11B39,2013-05-07 14:17:00,
2013-05-07 10:22:00,69.2,46.9,30.19,SE,140,0.0,0.0,45,0.00,,,0.00,WeatherCatV1.11B39,2013-05-07 14:22:00,
2013-05-07 10:27:00,69.7,48.6,30.19,SE,139,0.0,0.0,47,0.00,,,0.00,WeatherCatV1.11B39,2013-05-07 14:27:00,
2013-05-07 10:32:00,70.5,47.5,30.19,SSE,160,0.0,0.0,44,0.00,,,0.00,WeatherCatV1.11B39,2013-05-07 14:32:00,
2013-05-07 10:37:00,70.9,48.5,30.19,SSE,164,0.0,0.0,45,0.00,,,0.00,WeatherCatV1.11B39,2013-05-07 14:37:00,
2013-05-07 10:42:00,71.4,45.1,30.19,NE,34,0.0,0.0,39,0.00,,,0.00,WeatherCatV1.11B39,2013-05-07 14:42:00,
2013-05-07 10:47:00,71.3,42.2,30.19,WSW,238,0.0,0.0,35,0.00,,,0.00,WeatherCatV1.11B39,2013-05-07 14:47:00,
2013-05-07 10:52:00,71.2,41.4,30.18,WSW,238,0.0,0.0,34,0.00,,,0.00,WeatherCatV1.11B39,2013-05-07 14:52:00,
2013-05-07 10:57:00,71.2,43.6,30.19,WSW,238,0.0,0.0,37,0.00,,,0.00,WeatherCatV1.11B39,2013-05-07 14:57:00,
2013-05-07 11:02:00,72.1,47.1,30.18,WSW,238,0.0,0.0,41,0.00,,,0.00,WeatherCatV1.11B39,2013-05-07 15:02:00,
2013-05-07 11:07:00,72.1,45.1,30.19,SW,232,0.0,0.0,38,0.00,,,0.00,WeatherCatV1.11B39,2013-05-07 15:07:00,
2013-05-07 11:12:00,71.9,45.6,30.18,NE,43,0.0,2.0,39,0.00,,,0.00,WeatherCatV1.11B39,2013-05-07 15:12:00,
2013-05-07 11:17:00,72.8,47.7,30.18,WSW,253,0.0,0.0,41,0.00,,,0.00,WeatherCatV1.11B39,2013-05-07 15:17:00,
2013-05-07 11:22:00,73.5,45.6,30.18,South,174,0.0,0.0,37,0.00,,,0.00,WeatherCatV1.11B39,2013-05-07 15:22:00,
2013-05-07 11:27:00,73.8,45.9,30.18,South,172,0.0,0.0,37,0.00,,,0.00,WeatherCatV1.11B39,2013-05-07 15:27:00,
2013-05-07 11:32:00,73.8,44.4,30.18,East,101,0.0,0.0,35,0.00,,,0.00,WeatherCatV1.11B39,2013-05-07 15:32:00,
2013-05-07 11:37:00,74.3,47.7,30.17,SSW,197,0.0,0.0,39,0.00,,,0.00,WeatherCatV1.11B39,2013-05-07 15:37:00,
2013-05-07 11:42:00,73.9,44.5,30.18,WSW,239,0.0,2.0,35,0.00,,,0.00,WeatherCatV1.11B39,2013-05-07 15:42:00,
2013-05-07 11:47:00,73.4,44.8,30.18,SW,230,0.0,6.0,36,0.00,,,0.00,WeatherCatV1.11B39,2013-05-07 15:47:00,
2013-05-07 11:52:00,73.1,46.0,30.18,South,187,0.0,0.0,38,0.00,,,0.00,WeatherCatV1.11B39,2013-05-07 15:52:00,
2013-05-07 11:57:00,73.3,42.4,30.17,SW,214,0.0,1.0,33,0.00,,,0.00,WeatherCatV1.11B39,2013-05-07 15:57:00,
2013-05-07 12:02:00,73.8,43.7,30.18,SSE,163,0.0,0.0,34,0.00,,,0.00,WeatherCatV1.11B39,2013-05-07 16:02:00,
2013-05-07 12:07:00,74.3,44.1,30.17,SW,224,0.0,0.0,34,0.00,,,0.00,WeatherCatV1.11B39,2013-05-07 16:07:00,
2013-05-07 12:12:00,75.2,44.1,30.17,SSW,213,0.0,2.0,33,0.00,,,0.00,WeatherCatV1.11B39,2013-05-07 16:12:00,
2013-05-07 12:17:00,73.8,45.2,30.17,WSW,243,0.0,6.0,36,0.00,,,0.00,WeatherCatV1.11B39,2013-05-07 16:17:00,
2013-05-07 12:22:00,73.1,43.8,30.17,WSW,258,0.0,6.0,35,0.00,,,0.00,WeatherCatV1.11B39,2013-05-07 16:22:00,
2013-05-07 12:27:00,73.1,43.0,30.17,WSW,250,0.0,6.0,34,0.00,,,0.00,WeatherCatV1.11B39,2013-05-07 16:27:00,
2013-05-07 12:32:00,73.5,43.4,30.17,SSE,168,0.0,0.0,34,0.00,,,0.00,WeatherCatV1.11B39,2013-05-07 16:32:00,
2013-05-07 12:37:00,74.5,44.3,30.17,WSW,252,0.0,0.0,34,0.00,,,0.00,WeatherCatV1.11B39,2013-05-07 16:37:00,
2013-05-07 12:42:00,75.5,44.4,30.16,SSE,155,0.0,0.0,33,0.00,,,0.00,WeatherCatV1.11B39,2013-05-07 16:42:00,
2013-05-07 12:47:00,76.2,42.5,30.16,SSE,153,0.0,1.0,30,0.00,,,0.00,WeatherCatV1.11B39,2013-05-07 16:47:00,
2013-05-07 12:52:00,76.3,42.6,30.16,SSW,193,0.0,0.0,30,0.00,,,0.00,WeatherCatV1.11B39,2013-05-07 16:52:00,
2013-05-07 12:57:00,75.6,42.0,30.16,SW,224,0.0,0.0,30,0.00,,,0.00,WeatherCatV1.11B39,2013-05-07 16:57:00,
2013-05-07 13:02:00,75.2,44.1,30.16,South,184,0.0,3.0,33,0.00,,,0.00,WeatherCatV1.11B39,2013-05-07 17:02:00,
2013-05-07 13:07:00,74.8,44.5,30.16,WSW,242,0.0,0.0,34,0.00,,,0.00,WeatherCatV1.11B39,2013-05-07 17:07:00,
2013-05-07 13:12:00,75.0,43.1,30.17,WSW,247,5.0,11.0,32,0.00,,,0.00,WeatherCatV1.11B39,2013-05-07 17:12:00,
2013-05-07 13:17:00,74.5,42.7,30.16,WSW,252,4.0,4.0,32,0.00,,,0.00,WeatherCatV1.11B39,2013-05-07 17:17:00,
2013-05-07 13:22:00,75.0,41.4,30.16,SSW,200,0.0,0.0,30,0.00,,,0.00,WeatherCatV1.11B39,2013-05-07 17:22:00,
2013-05-07 13:27:00,75.5,43.6,30.16,SSW,211,0.0,6.0,32,0.00,,,0.00,WeatherCatV1.11B39,2013-05-07 17:27:00,
2013-05-07 13:32:00,76.3,45.8,30.16,WSW,252,0.0,4.0,34,0.00,,,0.00,WeatherCatV1.11B39,2013-05-07 17:32:00,
2013-05-07 13:37:00,76.3,44.3,30.16,SSW,211,0.0,0.0,32,0.00,,,0.00,WeatherCatV1.11B39,2013-05-07 17:37:00,
2013-05-07 13:42:00,76.1,42.4,30.16,WSW,252,0.0,0.0,30,0.00,,,0.00,WeatherCatV1.11B39,2013-05-07 17:42:00,
2013-05-07 13:48:00,75.5,41.9,30.16,WSW,247,1.0,6.0,30,0.00,,,0.00,WeatherCatV1.11B39,2013-05-07 17:48:00,
2013-05-07 13:53:00,75.7,45.3,30.15,WSW,243,0.0,1.0,34,0.00,,,0.00,WeatherCatV1.11B39,2013-05-07 17:53:00,
2013-05-07 13:58:00,75.9,39.5,30.16,SW,235,0.0,0.0,27,0.00,,,0.00,WeatherCatV1.11B39,2013-05-07 17:58:00,
2013-05-07 14:03:00,76.1,43.2,30.15,South,187,0.0,0.0,31,0.00,,,0.00,WeatherCatV1.11B39,2013-05-07 18:03:00,
2013-05-07 14:08:00,76.6,44.5,30.15,SW,231,0.0,4.0,32,0.00,,,0.00,WeatherCatV1.11B39,2013-05-07 18:08:00,
2013-05-07 14:13:00,76.4,44.3,30.15,ESE,122,0.0,0.0,32,0.00,,,0.00,WeatherCatV1.11B39,2013-05-07 18:13:00,
2013-05-07 14:18:00,76.7,43.8,30.15,WSW,244,0.0,7.0,31,0.00,,,0.00,WeatherCatV1.11B39,2013-05-07 18:18:00,
2013-05-07 14:23:00,76.1,44.1,30.14,West,261,10.0,14.0,32,0.00,,,0.00,WeatherCatV1.11B39,2013-05-07 18:23:00,
2013-05-07 14:28:00,75.2,44.1,30.14,WSW,249,4.0,9.0,33,0.00,,,0.00,WeatherCatV1.11B39,2013-05-07 18:28:00,
2013-05-07 14:33:00,75.2,45.7,30.14,WSW,249,0.0,0.0,35,0.00,,,0.00,WeatherCatV1.11B39,2013-05-07 18:33:00,
2013-05-07 14:38:00,75.7,45.3,30.14,SW,234,0.0,0.0,34,0.00,,,0.00,WeatherCatV1.11B39,2013-05-07 18:38:00,
2013-05-07 14:43:00,76.3,45.1,30.14,WSW,246,0.0,2.0,33,0.00,,,0.00,WeatherCatV1.11B39,2013-05-07 18:43:00,
2013-05-07 14:48:00,76.6,44.5,30.13,SSE,147,0.0,0.0,32,0.00,,,0.00,WeatherCatV1.11B39,2013-05-07 18:48:00,
2013-05-07 14:53:00,76.6,45.3,30.13,WSW,243,0.0,0.0,33,0.00,,,0.00,WeatherCatV1.11B39,2013-05-07 18:53:00,
2013-05-07 14:58:00,76.6,46.1,30.13,SW,236,0.0,0.0,34,0.00,,,0.00,WeatherCatV1.11B39,2013-05-07 18:58:00,
2013-05-07 15:03:00,76.6,45.3,30.13,South,181,0.0,2.0,33,0.00,,,0.00,WeatherCatV1.11B39,2013-05-07 19:03:00,
2013-05-07 15:08:00,77.3,46.7,30.12,South,187,0.0,1.0,34,0.00,,,0.00,WeatherCatV1.11B39,2013-05-07 19:08:00,
2013-05-07 15:13:00,77.7,46.3,30.12,SE,138,0.0,9.0,33,0.00,,,0.00,WeatherCatV1.11B39,2013-05-07 19:13:00,
2013-05-07 15:18:00,77.7,47.1,30.12,SSW,192,0.0,0.0,34,0.00,,,0.00,WeatherCatV1.11B39,2013-05-07 19:18:00,
2013-05-07 15:23:00,77.7,47.1,30.12,WSW,244,0.0,0.0,34,0.00,,,0.00,WeatherCatV1.11B39,2013-05-07 19:23:00,
2013-05-07 15:28:00,77.5,46.9,30.12,WSW,249,5.0,6.0,34,0.00,,,0.00,WeatherCatV1.11B39,2013-05-07 19:28:00,
2013-05-07 15:33:00,76.8,48.5,30.11,WSW,243,0.0,0.0,37,0.00,,,0.00,WeatherCatV1.11B39,2013-05-07 19:33:00,
2013-05-07 15:38:00,76.9,48.6,30.12,WSW,241,0.0,5.0,37,0.00,,,0.00,WeatherCatV1.11B39,2013-05-07 19:38:00,
2013-05-07 15:43:00,76.8,48.5,30.12,WSW,237,0.0,2.0,37,0.00,,,0.00,WeatherCatV1.11B39,2013-05-07 19:43:00,
2013-05-07 15:48:00,77.0,47.2,30.12,South,173,0.0,0.0,35,0.00,,,0.00,WeatherCatV1.11B39,2013-05-07 19:48:00,
2013-05-07 15:53:00,78.0,51.0,30.11,East,94,0.0,0.0,39,0.00,,,0.00,WeatherCatV1.11B39,2013-05-07 19:53:00,
2013-05-07 15:58:00,79.3,50.0,30.11,WSW,258,0.0,1.0,36,0.00,,,0.00,WeatherCatV1.11B39,2013-05-07 19:58:00,
2013-05-07 16:03:00,79.7,49.6,30.11,SSE,165,0.0,0.0,35,0.00,,,0.00,WeatherCatV1.11B39,2013-05-07 20:03:00,
2013-05-07 16:08:00,79.9,49.0,30.11,South,170,0.0,0.0,34,0.00,,,0.00,WeatherCatV1.11B39,2013-05-07 20:08:00,
2013-05-07 16:13:00,79.7,48.8,30.11,West,274,0.0,0.0,34,0.00,,,0.00,WeatherCatV1.11B39,2013-05-07 20:13:00,
2013-05-07 16:18:00,78.6,49.4,30.11,South,172,0.0,0.0,36,0.00,,,0.00,WeatherCatV1.11B39,2013-05-07 20:18:00,
2013-05-07 16:23:00,78.9,51.8,30.12,SW,221,0.0,0.0,39,0.00,,,0.00,WeatherCatV1.11B39,2013-05-07 20:23:00,
2013-05-07 16:28:00,79.3,50.0,30.11,WSW,255,0.0,0.0,36,0.00,,,0.00,WeatherCatV1.11B39,2013-05-07 20:28:00,
2013-05-07 16:33:00,79.3,51.5,30.12,South,169,0.0,0.0,38,0.00,,,0.00,WeatherCatV1.11B39,2013-05-07 20:33:00,
2013-05-07 16:38:00,79.1,49.8,30.12,SW,231,1.0,1.0,36,0.00,,,0.00,WeatherCatV1.11B39,2013-05-07 20:38:00,
2013-05-07 16:43:00,78.9,50.4,30.11,WSW,238,0.0,0.0,37,0.00,,,0.00,WeatherCatV1.11B39,2013-05-07 20:43:00,
2013-05-07 16:48:00,79.1,50.6,30.11,SW,218,0.0,0.0,37,0.00,,,0.00,WeatherCatV1.11B39,2013-05-07 20:48:00,
2013-05-07 16:53:00,78.9,49.7,30.12,SW,218,0.0,2.0,36,0.00,,,0.00,WeatherCatV1.11B39,2013-05-07 20:53:00,
2013-05-07 16:58:00,79.2,48.4,30.11,SSE,161,0.0,0.0,34,0.00,,,0.00,WeatherCatV1.11B39,2013-05-07 20:58:00,
2013-05-07 17:03:00,78.8,48.8,30.11,SW,218,0.0,0.0,35,0.00,,,0.00,WeatherCatV1.11B39,2013-05-07 21:03:00,
2013-05-07 17:08:00,78.4,49.9,30.11,SSE,167,0.0,0.0,37,0.00,,,0.00,WeatherCatV1.11B39,2013-05-07 21:08:00,
2013-05-07 17:13:00,78.5,50.0,30.11,SSW,213,0.0,0.0,37,0.00,,,0.00,WeatherCatV1.11B39,2013-05-07 21:13:00,
2013-05-07 17:18:00,78.2,49.8,30.11,SW,236,0.0,1.0,37,0.00,,,0.00,WeatherCatV1.11B39,2013-05-07 21:18:00,
2013-05-07 17:23:00,77.7,50.7,30.11,South,169,0.0,0.0,39,0.00,,,0.00,WeatherCatV1.11B39,2013-05-07 21:23:00,
2013-05-07 17:28:00,78.0,51.0,30.11,South,188,0.0,1.0,39,0.00,,,0.00,WeatherCatV1.11B39,2013-05-07 21:28:00,
2013-05-07 17:33:00,78.0,51.0,30.11,NE,36,0.0,0.0,39,0.00,,,0.00,WeatherCatV1.11B39,2013-05-07 21:33:00,
2013-05-07 17:38:00,78.4,51.4,30.11,SSE,161,0.0,0.0,39,0.00,,,0.00,WeatherCatV1.11B39,2013-05-07 21:38:00,
2013-05-07 17:43:00,78.2,49.8,30.11,South,191,0.0,0.0,37,0.00,,,0.00,WeatherCatV1.11B39,2013-05-07 21:43:00,
2013-05-07 17:48:00,77.8,50.1,30.11,SSW,209,0.0,0.0,38,0.00,,,0.00,WeatherCatV1.11B39,2013-05-07 21:48:00,
2013-05-07 17:53:00,77.5,50.6,30.12,WSW,242,0.0,0.0,39,0.00,,,0.00,WeatherCatV1.11B39,2013-05-07 21:53:00,
2013-05-07 17:58:00,77.1,51.6,30.12,SW,235,0.0,1.0,41,0.00,,,0.00,WeatherCatV1.11B39,2013-05-07 21:58:00,
2013-05-07 18:03:00,76.4,52.2,30.12,SW,226,0.0,1.0,43,0.00,,,0.00,WeatherCatV1.11B39,2013-05-07 22:03:00,
2013-05-07 18:08:00,75.9,53.0,30.12,WSW,238,0.0,0.0,45,0.00,,,0.00,WeatherCatV1.11B39,2013-05-07 22:08:00,
2013-05-07 18:13:00,75.4,53.7,30.12,SSW,207,0.0,0.0,47,0.00,,,0.00,WeatherCatV1.11B39,2013-05-07 22:13:00,
2013-05-07 18:18:00,74.8,54.3,30.12,WSW,243,0.0,4.0,49,0.00,,,0.00,WeatherCatV1.11B39,2013-05-07 22:18:00,
2013-05-07 18:23:00,74.3,54.4,30.12,WSW,242,0.0,1.0,50,0.00,,,0.00,WeatherCatV1.11B39,2013-05-07 22:23:00,
2013-05-07 18:28:00,74.2,54.3,30.13,South,171,0.0,0.0,50,0.00,,,0.00,WeatherCatV1.11B39,2013-05-07 22:28:00,
2013-05-07 18:33:00,74.2,54.9,30.13,WSW,251,0.0,1.0,51,0.00,,,0.00,WeatherCatV1.11B39,2013-05-07 22:33:00,
2013-05-07 18:38:00,74.1,54.8,30.12,WSW,244,0.0,7.0,51,0.00,,,0.00,WeatherCatV1.11B39,2013-05-07 22:38:00,
2013-05-07 18:43:00,74.1,54.8,30.13,SSW,212,0.0,1.0,51,0.00,,,0.00,WeatherCatV1.11B39,2013-05-07 22:43:00,
2013-05-07 18:48:00,74.0,54.2,30.13,South,180,0.0,0.0,50,0.00,,,0.00,WeatherCatV1.11B39,2013-05-07 22:48:00,
2013-05-07 18:53:00,73.8,55.1,30.12,SSW,213,0.0,0.0,52,0.00,,,0.00,WeatherCatV1.11B39,2013-05-07 22:53:00,
2013-05-07 18:58:00,73.8,55.1,30.13,SW,214,0.0,0.0,52,0.00,,,0.00,WeatherCatV1.11B39,2013-05-07 22:58:00,
2013-05-07 19:03:00,73.7,55.0,30.13,SSE,160,0.0,1.0,52,0.00,,,0.00,WeatherCatV1.11B39,2013-05-07 23:03:00,
2013-05-07 19:08:00,73.3,54.6,30.14,SW,225,0.0,2.0,52,0.00,,,0.00,WeatherCatV1.11B39,2013-05-07 23:08:00,
2013-05-07 19:13:00,73.1,54.9,30.14,WSW,245,0.0,1.0,53,0.00,,,0.00,WeatherCatV1.11B39,2013-05-07 23:13:00,
2013-05-07 19:18:00,72.7,54.6,30.15,SSW,203,0.0,0.0,53,0.00,,,0.00,WeatherCatV1.11B39,2013-05-07 23:18:00,
2013-05-07 19:23:00,72.5,54.4,30.14,SW,220,0.0,0.0,53,0.00,,,0.00,WeatherCatV1.11B39,2013-05-07 23:23:00,
2013-05-07 19:28:00,72.1,54.0,30.15,SSW,204,0.0,0.0,53,0.00,,,0.00,WeatherCatV1.11B39,2013-05-07 23:28:00,
2013-05-07 19:33:00,71.9,54.3,30.15,South,183,0.0,0.0,54,0.00,,,0.00,WeatherCatV1.11B39,2013-05-07 23:33:00,
2013-05-07 19:38:00,71.6,54.1,30.15,SW,229,0.0,0.0,54,0.00,,,0.00,WeatherCatV1.11B39,2013-05-07 23:38:00,
2013-05-07 19:43:00,71.3,53.8,30.15,SW,223,0.0,0.0,54,0.00,,,0.00,WeatherCatV1.11B39,2013-05-07 23:43:00,
2013-05-07 19:48:00,71.1,53.6,30.15,SSW,192,0.0,0.0,54,0.00,,,0.00,WeatherCatV1.11B39,2013-05-07 23:48:00,
2013-05-07 19:53:00,70.9,53.9,30.15,South,175,0.0,0.0,55,0.00,,,0.00,WeatherCatV1.11B39,2013-05-07 23:53:00,
2013-05-07 19:58:00,70.7,53.7,30.16,South,175,0.0,0.0,55,0.00,,,0.00,WeatherCatV1.11B39,2013-05-07 23:58:00,
2013-05-07 20:03:00,70.6,53.6,30.16,South,175,0.0,0.0,55,0.00,,,0.00,WeatherCatV1.11B39,2013-05-08 00:03:00,
2013-05-07 20:08:00,70.4,53.4,30.16,South,184,0.0,0.0,55,0.00,,,0.00,WeatherCatV1.11B39,2013-05-08 00:08:00,
2013-05-07 20:13:00,70.2,54.2,30.16,SE,146,0.0,0.0,57,0.00,,,0.00,WeatherCatV1.11B39,2013-05-08 00:13:00,
2013-05-07 20:18:00,69.9,54.0,30.16,WSW,245,0.0,0.0,57,0.00,,,0.00,WeatherCatV1.11B39,2013-05-08 00:18:00,
2013-05-07 20:23:00,69.8,53.9,30.17,SW,219,0.0,0.0,57,0.00,,,0.00,WeatherCatV1.11B39,2013-05-08 00:23:00,
2013-05-07 20:28:00,69.6,54.2,30.17,SSW,213,0.0,0.0,58,0.00,,,0.00,WeatherCatV1.11B39,2013-05-08 00:28:00,
2013-05-07 20:33:00,69.3,53.9,30.17,SW,214,0.0,0.0,58,0.00,,,0.00,WeatherCatV1.11B39,2013-05-08 00:33:00,
2013-05-07 20:38:00,69.1,54.2,30.17,WSW,253,0.0,2.0,59,0.00,,,0.00,WeatherCatV1.11B39,2013-05-08 00:38:00,
2013-05-07 20:43:00,68.9,54.0,30.17,WSW,253,0.0,0.0,59,0.00,,,0.00,WeatherCatV1.11B39,2013-05-08 00:43:00,
2013-05-07 20:48:00,68.8,53.9,30.17,WSW,238,0.0,0.0,59,0.00,,,0.00,WeatherCatV1.11B39,2013-05-08 00:48:00,
2013-05-07 20:53:00,68.6,53.7,30.18,West,263,0.0,5.0,59,0.00,,,0.00,WeatherCatV1.11B39,2013-05-08 00:53:00,
2013-05-07 20:58:00,68.4,53.5,30.18,West,264,0.0,0.0,59,0.00,,,0.00,WeatherCatV1.11B39,2013-05-08 00:58:00,
2013-05-07 21:03:00,68.2,53.8,30.17,WSW,238,0.0,4.0,60,0.00,,,0.00,WeatherCatV1.11B39,2013-05-08 01:03:00,
2013-05-07 21:08:00,68.1,54.1,30.18,WSW,247,0.0,2.0,61,0.00,,,0.00,WeatherCatV1.11B39,2013-05-08 01:08:00,
2013-05-07 21:13:00,67.8,53.4,30.18,SW,236,0.0,1.0,60,0.00,,,0.00,WeatherCatV1.11B39,2013-05-08 01:13:00,
2013-05-07 21:18:00,67.8,53.8,30.18,WSW,238,0.0,0.0,61,0.00,,,0.00,WeatherCatV1.11B39,2013-05-08 01:18:00,
2013-05-07 21:23:00,67.5,53.6,30.18,WSW,242,0.0,0.0,61,0.00,,,0.00,WeatherCatV1.11B39,2013-05-08 01:23:00,
2013-05-07 21:28:00,67.3,53.4,30.18,WSW,240,0.0,0.0,61,0.00,,,0.00,WeatherCatV1.11B39,2013-05-08 01:28:00,
2013-05-07 21:33:00,66.9,53.4,30.18,SW,229,0.0,0.0,62,0.00,,,0.00,WeatherCatV1.11B39,2013-05-08 01:33:00,
2013-05-07 21:38:00,66.8,53.8,30.18,WSW,258,0.0,4.0,63,0.00,,,0.00,WeatherCatV1.11B39,2013-05-08 01:38:00,
2013-05-07 21:43:00,66.4,53.4,30.19,SSW,208,0.0,0.0,63,0.00,,,0.00,WeatherCatV1.11B39,2013-05-08 01:43:00,
2013-05-07 21:48:00,66.3,53.3,30.19,SW,233,0.0,0.0,63,0.00,,,0.00,WeatherCatV1.11B39,2013-05-08 01:48:00,
2013-05-07 21:53:00,66.3,53.3,30.19,SW,225,0.0,0.0,63,0.00,,,0.00,WeatherCatV1.11B39,2013-05-08 01:53:00,
2013-05-07 21:58:00,66.1,53.1,30.19,WSW,251,0.0,1.0,63,0.00,,,0.00,WeatherCatV1.11B39,2013-05-08 01:58:00,
2013-05-07 22:03:00,65.8,53.3,30.19,WSW,249,0.0,0.0,64,0.00,,,0.00,WeatherCatV1.11B39,2013-05-08 02:03:00,
2013-05-07 22:08:00,65.6,53.5,30.19,WSW,249,0.0,0.0,65,0.00,,,0.00,WeatherCatV1.11B39,2013-05-08 02:08:00,
2013-05-07 22:13:00,65.5,53.4,30.19,WSW,249,0.0,0.0,65,0.00,,,0.00,WeatherCatV1.11B39,2013-05-08 02:13:00,
2013-05-07 22:18:00,65.3,52.8,30.19,WSW,249,0.0,0.0,64,0.00,,,0.00,WeatherCatV1.11B39,2013-05-08 02:18:00,
2013-05-07 22:23:00,65.2,53.1,30.19,WSW,249,0.0,0.0,65,0.00,,,0.00,WeatherCatV1.11B39,2013-05-08 02:23:00,
2013-05-07 22:28:00,64.9,53.7,30.19,WSW,249,0.0,0.0,67,0.00,,,0.00,WeatherCatV1.11B39,2013-05-08 02:28:00,
2013-05-07 22:33:00,64.7,53.5,30.19,WSW,238,0.0,0.0,67,0.00,,,0.00,WeatherCatV1.11B39,2013-05-08 02:33:00,
2013-05-07 22:38:00,64.5,53.7,30.20,WSW,241,0.0,0.0,68,0.00,,,0.00,WeatherCatV1.11B39,2013-05-08 02:38:00,
2013-05-07 22:43:00,64.4,53.6,30.20,SW,229,0.0,0.0,68,0.00,,,0.00,WeatherCatV1.11B39,2013-05-08 02:43:00,
2013-05-07 22:48:00,64.2,53.8,30.20,SSW,208,0.0,1.0,69,0.00,,,0.00,WeatherCatV1.11B39,2013-05-08 02:48:00,
2013-05-07 22:53:00,64.2,54.2,30.19,WSW,254,0.0,0.0,70,0.00,,,0.00,WeatherCatV1.11B39,2013-05-08 02:53:00,
2013-05-07 22:58:00,64.0,54.0,30.20,WSW,254,0.0,0.0,70,0.00,,,0.00,WeatherCatV1.11B39,2013-05-08 02:58:00,
2013-05-07 23:03:00,63.9,53.9,30.19,WSW,251,0.0,0.0,70,0.00,,,0.00,WeatherCatV1.11B39,2013-05-08 03:03:00,
2013-05-07 23:08:00,63.9,53.9,30.20,SW,236,0.0,0.0,70,0.00,,,0.00,WeatherCatV1.11B39,2013-05-08 03:08:00,
2013-05-07 23:13:00,63.7,54.1,30.20,WSW,248,0.0,0.0,71,0.00,,,0.00,WeatherCatV1.11B39,2013-05-08 03:13:00,
2013-05-07 23:18:00,63.5,53.9,30.20,WSW,238,0.0,5.0,71,0.00,,,0.00,WeatherCatV1.11B39,2013-05-08 03:18:00,
2013-05-07 23:23:00,63.5,54.3,30.20,WSW,241,0.0,3.0,72,0.00,,,0.00,WeatherCatV1.11B39,2013-05-08 03:23:00,
2013-05-07 23:28:00,63.4,54.2,30.20,WSW,237,0.0,0.0,72,0.00,,,0.00,WeatherCatV1.11B39,2013-05-08 03:28:00,
2013-05-07 23:33:00,63.4,54.2,30.21,SW,234,0.0,0.0,72,0.00,,,0.00,WeatherCatV1.11B39,2013-05-08 03:33:00,
2013-05-07 23:38:00,63.2,54.0,30.20,SW,234,0.0,4.0,72,0.00,,,0.00,WeatherCatV1.11B39,2013-05-08 03:38:00,
2013-05-07 23:43:00,63.1,53.9,30.20,SSW,198,0.0,0.0,72,0.00,,,0.00,WeatherCatV1.11B39,2013-05-08 03:43:00,
2013-05-07 23:48:00,62.9,54.1,30.20,SW,236,0.0,1.0,73,0.00,,,0.00,WeatherCatV1.11B39,2013-05-08 03:48:00,
2013-05-07 23:53:00,62.7,53.9,30.20,SW,236,0.0,0.0,73,0.00,,,0.00,WeatherCatV1.11B39,2013-05-08 03:53:00,
2013-05-07 23:58:00,62.6,53.8,30.20,WSW,253,0.0,0.0,73,0.00,,,0.00,WeatherCatV1.11B39,2013-05-08 03:58:00,